Time;durP1;ratioP1;P1;durP2;ratioP2;P2;SDS_P1;SDS_P2;PMS_P1;PMS_P2;Temp;Humidity;BMP_temperature;BMP_pressure;BME280_temperature;BME280_humidity;BME280_pressure;Samples;Min_cycle;Max_cycle;Signal;HPM_P1;HPM_P2
2023/04/05 00:00:53;;;;;;;8.63;5.32;;;;;;;2.05;71.18;101885.97;5011965;28;20038;-68
2023/04/05 00:03:18;;;;;;;9.30;4.72;;;;;;;2.08;71.08;101887.78;5013049;28;20513;-67
2023/04/05 00:05:44;;;;;;;7.85;5.03;;;;;;;2.08;71.15;101881.00;5014024;28;20038;-67
2023/04/05 00:08:22;;;;;;;8.98;4.35;;;;;;;2.07;71.03;101881.84;5015572;28;20409;-67
2023/04/05 00:10:48;;;;;;;7.07;4.18;;;;;;;2.07;71.03;101871.63;5009339;28;20029;-66
2023/04/05 00:13:13;;;;;;;11.05;4.20;;;;;;;2.07;70.93;101870.75;5016305;28;20041;-67
2023/04/05 00:15:39;;;;;;;11.02;5.20;;;;;;;2.05;72.37;101893.63;5006695;28;20045;-67
2023/04/05 00:18:05;;;;;;;7.78;4.63;;;;;;;2.00;72.55;101887.47;5003608;28;20034;-68
2023/04/05 00:20:30;;;;;;;6.55;4.72;;;;;;;1.98;72.83;101888.22;5016285;28;20041;-67
2023/04/05 00:22:56;;;;;;;12.70;5.03;;;;;;;1.94;72.67;101889.75;5011354;28;20041;-68
2023/04/05 00:25:21;;;;;;;6.78;4.55;;;;;;;1.92;72.87;101883.72;5009413;28;20523;-67
2023/04/05 00:27:47;;;;;;;7.63;4.78;;;;;;;1.92;73.03;101867.53;5013013;28;20041;-68
2023/04/05 00:30:19;;;;;;;10.27;4.70;;;;;;;1.94;72.94;101868.47;5010759;28;21045;-67
2023/04/05 00:32:46;;;;;;;12.07;5.40;;;;;;;1.97;72.96;101863.50;5013576;28;20029;-67
2023/04/05 00:35:12;;;;;;;9.18;5.30;;;;;;;2.01;72.81;101860.28;5012995;28;20577;-67
2023/04/05 00:37:37;;;;;;;9.13;4.63;;;;;;;2.08;72.71;101859.75;5015200;28;20080;-67
2023/04/05 00:40:03;;;;;;;9.85;5.15;;;;;;;2.18;73.83;101872.09;5013423;28;20032;-67
2023/04/05 00:42:29;;;;;;;10.60;4.95;;;;;;;2.20;73.97;101879.00;5015292;28;20124;-67
2023/04/05 00:44:54;;;;;;;11.68;5.45;;;;;;;2.19;73.93;101879.78;5011846;28;20037;-68
2023/04/05 00:47:20;;;;;;;10.60;5.03;;;;;;;2.24;73.93;101872.34;5015725;28;20168;-67
2023/04/05 00:49:45;;;;;;;12.40;5.28;;;;;;;2.28;73.85;101869.13;5012382;28;20084;-68
2023/04/05 00:52:11;;;;;;;13.02;5.50;;;;;;;2.35;73.57;101856.69;5011617;28;20438;-67
2023/04/05 00:54:38;;;;;;;9.57;4.95;;;;;;;2.45;73.62;101863.06;5013113;28;20053;-67
2023/04/05 00:57:05;;;;;;;10.23;5.18;;;;;;;2.47;73.25;101863.09;5010595;28;20042;-67
2023/04/05 00:59:31;;;;;;;8.00;5.20;;;;;;;2.48;73.35;101864.84;5010966;28;20049;-68
2023/04/05 01:02:15;;;;;;;8.23;4.78;;;;;;;2.50;72.46;101850.47;5015060;28;20068;-68
2023/04/05 01:04:48;;;;;;;8.00;4.22;;;;;;;2.53;72.40;101853.16;5017352;28;20034;-68
2023/04/05 01:07:27;;;;;;;9.75;4.80;;;;;;;2.57;72.27;101837.16;5017991;28;20444;-68
2023/04/05 01:09:58;;;;;;;8.80;5.00;;;;;;;2.61;71.84;101832.22;5013238;28;20045;-68
2023/04/05 01:12:33;;;;;;;11.52;5.55;;;;;;;2.65;72.17;101835.78;5016669;28;20041;-68
2023/04/05 01:15:00;;;;;;;10.38;5.45;;;;;;;2.66;72.26;101833.31;5015672;28;20037;-67
2023/04/05 01:17:35;;;;;;;10.00;5.82;;;;;;;2.69;72.28;101832.56;5019056;28;20076;-67
2023/04/05 01:20:09;;;;;;;10.93;5.97;;;;;;;2.70;72.25;101832.59;5014326;28;20064;-67
2023/04/05 01:22:43;;;;;;;8.93;5.95;;;;;;;2.69;72.42;101830.00;5011338;28;20030;-68
2023/04/05 01:26:04;;;;;;;9.35;5.47;;;;;;;2.68;72.10;101824.03;5013890;28;20022;-67
2023/04/05 01:28:51;;;;;;;9.55;5.03;;;;;;;2.69;72.64;101822.34;4997260;28;20775;-67
2023/04/05 01:31:25;;;;;;;11.63;5.63;;;;;;;2.70;72.93;101832.59;4983659;28;20048;-67
2023/04/05 01:33:57;;;;;;;12.43;5.75;;;;;;;2.68;72.72;101826.56;5017757;28;20128;-67
2023/04/05 01:36:30;;;;;;;10.55;6.03;;;;;;;2.67;72.44;101824.81;5017230;28;20457;-67
2023/04/05 01:38:58;;;;;;;10.20;5.55;;;;;;;2.68;72.56;101830.81;5018371;28;20459;-69
2023/04/05 01:41:23;;;;;;;9.00;5.65;;;;;;;2.66;72.65;101823.09;5021158;28;20053;-67
2023/04/05 01:43:48;;;;;;;12.77;6.45;;;;;;;2.66;72.07;101819.69;5014758;28;20092;-67
2023/04/05 01:46:14;;;;;;;10.63;5.93;;;;;;;2.66;72.03;101820.56;5030856;28;20032;-67
2023/04/05 01:48:40;;;;;;;9.88;5.75;;;;;;;2.63;72.56;101824.66;5020595;28;20037;-67
2023/04/05 01:51:05;;;;;;;10.88;6.43;;;;;;;2.61;72.22;101809.25;5020357;28;20724;-69
2023/04/05 01:53:30;;;;;;;9.93;5.75;;;;;;;2.59;72.18;101810.91;5029641;28;20030;-67
2023/04/05 01:56:00;;;;;;;10.82;5.25;;;;;;;2.60;71.75;101807.53;5020124;28;20037;-68
2023/04/05 01:58:29;;;;;;;9.48;5.40;;;;;;;2.62;72.23;101808.47;5015133;28;20022;-67
2023/04/05 02:00:54;;;;;;;10.13;5.63;;;;;;;2.65;72.27;101808.59;5011354;28;20061;-68
2023/04/05 02:03:21;;;;;;;10.63;6.20;;;;;;;2.65;72.96;101817.91;5009321;28;20034;-68
2023/04/05 02:05:47;;;;;;;12.35;6.45;;;;;;;2.64;73.29;101822.16;5028139;28;20029;-67
2023/04/05 02:08:13;;;;;;;13.05;6.18;;;;;;;2.63;74.06;101838.28;5018106;28;20038;-68
2023/04/05 02:10:40;;;;;;;12.00;6.03;;;;;;;2.60;74.09;101834.75;5023119;28;20769;-68
2023/04/05 02:13:05;;;;;;;12.90;5.57;;;;;;;2.54;73.93;101837.91;5021866;28;20163;-67
2023/04/05 02:15:32;;;;;;;12.10;5.65;;;;;;;2.49;74.18;101836.00;5024609;28;20112;-68
2023/04/05 02:18:00;;;;;;;9.43;5.20;;;;;;;2.42;74.41;101834.88;5026837;28;20045;-67
2023/04/05 02:20:27;;;;;;;8.30;4.88;;;;;;;2.37;74.65;101833.78;5022220;28;20048;-68
2023/04/05 02:22:52;;;;;;;8.23;4.63;;;;;;;2.32;75.24;101840.38;5027915;28;20048;-68
2023/04/05 02:25:18;;;;;;;11.23;6.32;;;;;;;2.28;75.47;101841.06;5030722;28;20033;-68
2023/04/05 02:27:43;;;;;;;11.65;4.85;;;;;;;2.26;75.89;101840.13;5032291;28;20094;-68
2023/04/05 02:30:11;;;;;;;12.20;5.50;;;;;;;2.23;75.69;101842.53;5022531;28;20680;-68
2023/04/05 02:32:36;;;;;;;11.60;5.28;;;;;;;2.20;76.32;101832.22;5022836;28;20116;-68
2023/04/05 02:35:02;;;;;;;12.52;5.57;;;;;;;2.21;76.82;101841.63;5024718;28;20134;-67
2023/04/05 02:37:28;;;;;;;11.65;5.47;;;;;;;2.17;76.78;101839.72;5035126;28;20021;-68
2023/04/05 02:39:53;;;;;;;11.13;5.70;;;;;;;2.15;77.59;101833.69;5013020;28;20033;-68
2023/04/05 02:42:18;;;;;;;13.25;5.85;;;;;;;2.18;77.24;101826.19;5029479;28;20685;-69
2023/04/05 02:44:44;;;;;;;11.95;5.78;;;;;;;2.12;77.00;101818.28;5032888;28;20092;-68
2023/04/05 02:47:09;;;;;;;11.60;5.45;;;;;;;2.05;76.99;101827.34;5018270;28;20044;-68
2023/04/05 02:49:35;;;;;;;15.30;6.03;;;;;;;2.01;77.53;101832.25;5022223;28;20037;-67
2023/04/05 02:52:00;;;;;;;11.77;6.88;;;;;;;1.94;77.86;101832.78;5013720;28;20029;-69
2023/04/05 02:54:25;;;;;;;10.77;6.32;;;;;;;1.89;78.03;101827.50;5030373;28;20041;-68
2023/04/05 02:56:53;;;;;;;8.88;5.32;;;;;;;1.82;78.15;101828.91;5017844;28;20392;-68
2023/04/05 02:59:19;;;;;;;9.55;5.28;;;;;;;1.75;78.29;101831.97;5016113;28;20132;-68
2023/04/05 03:01:45;;;;;;;9.35;5.30;;;;;;;1.71;78.68;101826.69;5019480;28;20701;-68
2023/04/05 03:04:11;;;;;;;11.80;5.75;;;;;;;1.66;78.79;101833.25;5019213;28;20029;-68
2023/04/05 03:06:37;;;;;;;9.88;5.32;;;;;;;1.60;79.20;101838.06;5019075;28;20041;-67
2023/04/05 03:09:03;;;;;;;11.13;5.90;;;;;;;1.56;79.45;101831.09;5023343;28;20117;-67
2023/04/05 03:11:29;;;;;;;9.18;5.40;;;;;;;1.54;79.30;101827.63;5018260;28;20042;-68
2023/04/05 03:13:54;;;;;;;9.25;5.40;;;;;;;1.49;79.35;101831.63;5015478;28;20793;-68
2023/04/05 03:16:20;;;;;;;13.85;7.47;;;;;;;1.50;80.28;101830.84;5016999;28;20431;-67
2023/04/05 03:18:45;;;;;;;13.43;6.88;;;;;;;1.50;80.16;101835.94;5018577;28;20029;-67
2023/04/05 03:21:11;;;;;;;14.15;6.35;;;;;;;1.43;80.33;101834.78;5015043;28;20064;-68
2023/04/05 03:23:37;;;;;;;9.00;5.07;;;;;;;1.36;80.21;101825.09;5023777;28;20065;-67
2023/04/05 03:26:03;;;;;;;10.27;5.63;;;;;;;1.30;80.40;101825.69;5018139;28;20489;-68
2023/04/05 03:28:31;;;;;;;8.77;5.47;;;;;;;1.25;80.55;101827.16;5025167;28;20108;-67
2023/04/05 03:30:57;;;;;;;10.68;5.85;;;;;;;1.22;80.65;101832.13;5021581;28;20061;-67
2023/04/05 03:33:22;;;;;;;10.18;5.82;;;;;;;1.17;80.56;101831.03;5009379;28;20029;-67
2023/04/05 03:35:48;;;;;;;11.05;6.55;;;;;;;1.13;81.10;101828.28;5021157;28;20049;-68
2023/04/05 03:38:14;;;;;;;10.02;6.00;;;;;;;1.11;81.10;101834.97;5027486;28;20866;-67
2023/04/05 03:40:39;;;;;;;10.15;6.32;;;;;;;1.07;81.30;101838.16;5026436;28;20034;-67
2023/04/05 03:43:05;;;;;;;9.80;5.72;;;;;;;1.00;81.07;101828.53;5027164;28;20057;-67
2023/04/05 03:45:30;;;;;;;11.15;6.70;;;;;;;0.96;80.96;101829.16;5022029;28;20442;-68
2023/04/05 03:47:57;;;;;;;11.55;5.40;;;;;;;0.92;81.27;101824.72;5017395;28;20041;-67
2023/04/05 03:50:22;;;;;;;11.45;6.55;;;;;;;0.89;80.89;101811.84;5023091;28;20041;-67
2023/04/05 03:52:48;;;;;;;11.05;6.32;;;;;;;0.90;80.42;101811.94;5029301;28;20056;-67
2023/04/05 03:55:15;;;;;;;9.15;5.53;;;;;;;0.86;80.02;101804.06;5019320;28;20513;-68
2023/04/05 03:57:41;;;;;;;11.20;5.95;;;;;;;0.84;79.91;101805.69;5018813;28;20041;-67
2023/04/05 04:00:13;;;;;;;9.75;5.45;;;;;;;0.80;80.12;101801.22;5019643;28;20037;-67
2023/04/05 04:02:42;;;;;;;11.75;5.57;;;;;;;0.76;79.67;101792.63;5016545;28;20102;-67
2023/04/05 04:05:07;;;;;;;10.18;5.28;;;;;;;0.72;79.02;101796.69;5013432;28;20030;-67
2023/04/05 04:07:32;;;;;;;9.02;5.45;;;;;;;0.73;79.38;101802.66;5018025;28;20025;-67
2023/04/05 04:09:58;;;;;;;8.68;5.50;;;;;;;0.68;79.11;101799.88;5013786;28;20061;-67
2023/04/05 04:12:23;;;;;;;8.07;5.10;;;;;;;0.64;79.30;101795.44;5018039;28;20038;-68
2023/04/05 04:14:49;;;;;;;12.63;6.43;;;;;;;0.61;79.65;101797.84;5020576;28;20029;-67
2023/04/05 04:17:28;;;;;;;12.02;5.95;;;;;;;0.65;79.18;101797.16;5017963;28;20032;-67
2023/04/05 04:19:54;;;;;;;8.63;5.63;;;;;;;0.68;78.86;101788.81;5011497;28;20030;-68
2023/04/05 04:22:19;;;;;;;12.35;7.15;;;;;;;0.68;79.03;101791.34;5015324;28;20041;-68
2023/04/05 04:24:48;;;;;;;14.45;6.43;;;;;;;0.62;79.12;101791.06;5022860;28;20104;-67
2023/04/05 04:27:17;;;;;;;9.40;5.68;;;;;;;0.56;79.10;101798.41;5028068;28;20029;-68
2023/04/05 04:29:45;;;;;;;11.90;6.75;;;;;;;0.51;79.30;101802.41;5027212;28;20094;-68
2023/04/05 04:32:12;;;;;;;11.05;6.82;;;;;;;0.45;79.34;101800.44;5021676;28;20068;-67
2023/04/05 04:34:43;;;;;;;9.95;6.20;;;;;;;0.39;79.64;101802.69;5023646;28;20116;-68
2023/04/05 04:37:21;;;;;;;11.95;6.55;;;;;;;0.36;79.43;101811.81;5032395;28;20029;-67
2023/04/05 04:39:47;;;;;;;8.68;5.72;;;;;;;0.36;80.02;101811.81;5016746;28;20554;-68
2023/04/05 04:42:18;;;;;;;8.93;5.55;;;;;;;0.31;79.82;101806.53;5017168;28;20045;-68
2023/04/05 04:44:44;;;;;;;15.45;5.30;;;;;;;0.31;80.09;101809.06;5019082;28;20049;-68
2023/04/05 04:47:11;;;;;;;7.28;4.70;;;;;;;0.30;79.91;101814.94;5007006;28;20394;-68
2023/04/05 04:49:38;;;;;;;14.48;5.53;;;;;;;0.27;79.60;101804.63;5009614;28;20037;-68
2023/04/05 04:52:04;;;;;;;10.77;5.38;;;;;;;0.26;79.78;101813.06;5017117;28;20048;-68
2023/04/05 04:54:29;;;;;;;9.07;5.00;;;;;;;0.26;79.89;101813.06;5015460;28;22142;-67
2023/04/05 04:56:56;;;;;;;9.68;4.75;;;;;;;0.25;79.41;101811.31;5012979;28;20636;-68
2023/04/05 04:59:21;;;;;;;10.38;5.43;;;;;;;0.27;79.98;101824.09;5015911;28;20063;-68
2023/04/05 05:01:46;;;;;;;10.75;5.80;;;;;;;0.31;79.53;101820.91;5011573;28;20478;-68
2023/04/05 05:04:12;;;;;;;8.45;5.22;;;;;;;0.29;80.03;101819.97;5013455;28;20045;-67
2023/04/05 05:06:37;;;;;;;11.55;5.68;;;;;;;0.30;79.68;101819.16;5019431;28;20042;-67
2023/04/05 05:09:02;;;;;;;9.10;5.40;;;;;;;0.28;79.62;101819.09;5003369;28;20042;-68
2023/04/05 05:11:28;;;;;;;9.57;6.15;;;;;;;0.28;79.77;101819.09;5004938;28;20144;-67
2023/04/05 05:13:53;;;;;;;12.13;5.57;;;;;;;0.28;79.63;101825.84;5011669;28;20560;-67
2023/04/05 05:16:22;;;;;;;9.90;5.57;;;;;;;0.26;79.99;101815.59;5010237;28;20045;-68
2023/04/05 05:18:49;;;;;;;11.18;6.47;;;;;;;0.27;79.99;101821.53;5010591;28;20045;-68
2023/04/05 05:21:15;;;;;;;11.48;5.57;;;;;;;0.26;80.29;101823.25;5012005;28;20044;-68
2023/04/05 05:23:40;;;;;;;10.43;6.03;;;;;;;0.27;79.60;101826.63;5010681;28;20046;-67
2023/04/05 05:26:06;;;;;;;12.40;7.00;;;;;;;0.29;79.57;101828.44;5011351;28;20033;-67
2023/04/05 05:28:31;;;;;;;12.95;7.57;;;;;;;0.32;79.68;101828.59;5010699;28;20426;-67
2023/04/05 05:30:57;;;;;;;15.23;6.18;;;;;;;0.34;79.65;101823.59;5013641;28;20029;-67
2023/04/05 05:33:24;;;;;;;12.45;7.10;;;;;;;0.38;79.78;101828.06;5013970;28;20434;-68
2023/04/05 05:35:50;;;;;;;13.40;6.57;;;;;;;0.44;79.85;101821.56;5013553;28;20045;-68
2023/04/05 05:38:18;;;;;;;10.25;6.32;;;;;;;0.55;79.57;101811.94;5016176;28;20048;-68
2023/04/05 05:40:44;;;;;;;17.75;6.82;;;;;;;0.63;78.89;101808.97;5014617;28;20128;-67
2023/04/05 05:43:09;;;;;;;14.93;6.82;;;;;;;0.71;79.06;101806.75;5004784;28;20034;-67
2023/04/05 05:45:35;;;;;;;11.38;5.93;;;;;;;0.80;78.87;101802.13;5011564;28;20494;-68
2023/04/05 05:48:01;;;;;;;10.65;5.97;;;;;;;0.85;78.90;101794.72;5012027;28;20038;-69
2023/04/05 05:50:26;;;;;;;13.18;7.03;;;;;;;0.91;78.42;101793.34;5014653;28;20766;-70
2023/04/05 05:52:52;;;;;;;18.92;6.72;;;;;;;1.04;79.02;101798.16;5019674;28;20037;-69
2023/04/05 05:55:17;;;;;;;16.42;6.97;;;;;;;1.15;78.65;101798.69;5014340;28;20045;-69
2023/04/05 05:57:43;;;;;;;11.40;6.38;;;;;;;1.23;78.54;101798.22;5021778;28;20029;-69
2023/04/05 06:00:09;;;;;;;11.43;5.90;;;;;;;1.29;78.14;101798.50;5020844;28;20133;-69
2023/04/05 06:02:35;;;;;;;8.55;5.95;;;;;;;1.34;77.79;101798.69;5013032;28;20803;-69
2023/04/05 06:05:00;;;;;;;14.73;6.80;;;;;;;1.40;77.86;101803.19;5015498;28;20041;-70
2023/04/05 06:07:26;;;;;;;13.07;6.93;;;;;;;1.48;77.35;101807.81;5016213;28;20038;-69
2023/04/05 06:09:51;;;;;;;11.60;6.72;;;;;;;1.54;77.41;101797.06;5020712;28;20029;-69
2023/04/05 06:12:19;;;;;;;10.68;5.93;;;;;;;1.59;77.19;101798.13;5019409;28;20033;-70
2023/04/05 06:14:45;;;;;;;12.82;7.45;;;;;;;1.69;76.05;101777.31;5014915;28;20120;-68
2023/04/05 06:17:10;;;;;;;12.70;6.93;;;;;;;1.77;75.99;101787.06;5001992;28;20082;-69
2023/04/05 06:19:35;;;;;;;16.40;7.78;;;;;;;1.85;76.15;101782.28;5019016;28;20040;-69
2023/04/05 06:22:01;;;;;;;13.05;7.15;;;;;;;1.96;75.95;101781.03;5011600;28;20405;-69
2023/04/05 06:24:30;;;;;;;13.05;7.57;;;;;;;2.02;76.40;101785.53;5019800;28;20133;-69
2023/04/05 06:26:56;;;;;;;11.10;6.72;;;;;;;2.10;75.47;101771.44;5014289;28;20509;-69
2023/04/05 06:29:22;;;;;;;11.85;7.07;;;;;;;2.15;75.24;101780.16;5013753;28;20045;-69
2023/04/05 06:31:47;;;;;;;11.98;6.97;;;;;;;2.20;75.37;101776.09;5016093;28;20056;-70
2023/04/05 06:34:13;;;;;;;14.20;7.55;;;;;;;2.25;75.20;101775.47;5015418;28;20021;-69
2023/04/05 06:36:38;;;;;;;11.57;6.68;;;;;;;2.30;74.38;101768.03;5014686;28;20103;-69
2023/04/05 06:39:04;;;;;;;11.52;7.70;;;;;;;2.37;74.51;101765.78;5011209;28;20056;-69
2023/04/05 06:41:29;;;;;;;10.15;6.95;;;;;;;2.42;73.77;101763.41;5015057;28;20037;-70
2023/04/05 06:43:55;;;;;;;14.27;7.95;;;;;;;2.47;73.66;101756.81;5014873;28;20056;-70
2023/04/05 06:46:21;;;;;;;12.32;7.38;;;;;;;2.51;73.60;101756.13;5011855;28;20036;-71
2023/04/05 06:48:47;;;;;;;14.10;7.00;;;;;;;2.57;73.88;101761.47;5013552;28;20037;-69
2023/04/05 06:51:12;;;;;;;14.40;6.90;;;;;;;2.62;73.13;101749.75;5017610;28;20046;-69
2023/04/05 06:53:40;;;;;;;11.13;7.80;;;;;;;2.70;72.84;101750.94;5014880;28;20159;-69
2023/04/05 06:56:06;;;;;;;9.57;6.47;;;;;;;2.78;72.57;101741.03;5018223;28;20080;-70
2023/04/05 06:58:32;;;;;;;11.50;6.90;;;;;;;2.84;71.99;101733.59;5014430;28;20487;-70
2023/04/05 07:01:00;;;;;;;12.38;7.35;;;;;;;2.91;71.66;101736.44;5010728;28;20060;-68
2023/04/05 07:03:25;;;;;;;11.77;7.53;;;;;;;3.00;71.77;101738.47;5015539;28;20526;-69
2023/04/05 07:05:58;;;;;;;16.33;7.60;;;;;;;3.07;72.06;101739.56;5016612;28;20041;-68
2023/04/05 07:08:24;;;;;;;10.32;7.28;;;;;;;3.17;71.66;101726.34;5012716;28;20033;-70
2023/04/05 07:10:51;;;;;;;14.30;7.68;;;;;;;3.27;71.25;101724.16;5018663;28;20029;-69
2023/04/05 07:13:18;;;;;;;14.68;7.55;;;;;;;3.37;70.14;101716.00;5020255;28;20021;-69
2023/04/05 07:15:44;;;;;;;10.90;7.07;;;;;;;3.47;70.48;101702.72;5021537;28;20055;-68
2023/04/05 07:18:10;;;;;;;16.50;8.13;;;;;;;3.54;70.50;101716.59;5014980;28;20038;-68
2023/04/05 07:20:35;;;;;;;10.52;6.90;;;;;;;3.63;69.95;101708.38;5012673;28;20107;-68
2023/04/05 07:23:01;;;;;;;10.13;6.30;;;;;;;3.75;69.91;101683.22;5009689;28;20041;-69
2023/04/05 07:25:26;;;;;;;11.93;6.57;;;;;;;3.88;67.86;101667.50;5016056;28;20029;-69
2023/04/05 07:27:52;;;;;;;12.32;6.72;;;;;;;4.02;67.97;101666.25;5014848;28;20045;-70
2023/04/05 07:30:17;;;;;;;10.88;7.68;;;;;;;4.09;67.91;101666.47;5016708;28;20041;-70
2023/04/05 07:32:43;;;;;;;11.52;6.93;;;;;;;4.18;68.53;101673.56;5016514;28;20037;-70
2023/04/05 07:35:09;;;;;;;9.60;6.38;;;;;;;4.28;67.69;101673.06;5020131;28;20135;-70
2023/04/05 07:37:35;;;;;;;13.95;8.38;;;;;;;4.35;66.86;101653.66;5018056;28;20835;-70
2023/04/05 07:40:00;;;;;;;12.93;7.05;;;;;;;4.45;66.34;101665.88;5013294;28;20017;-70
2023/04/05 07:42:26;;;;;;;9.75;6.55;;;;;;;4.54;64.71;101628.63;5018817;28;20036;-69
2023/04/05 07:44:52;;;;;;;14.25;6.80;;;;;;;4.63;66.23;101653.63;5019685;28;20049;-70
2023/04/05 07:47:17;;;;;;;9.70;6.93;;;;;;;4.74;66.58;101665.09;5015670;28;20034;-70
2023/04/05 07:49:43;;;;;;;10.60;6.85;;;;;;;4.80;66.07;101651.59;5016697;28;20053;-69
2023/04/05 07:52:08;;;;;;;14.75;12.65;;;;;;;4.89;64.48;101626.25;5013366;28;20033;-69
2023/04/05 07:54:38;;;;;;;12.77;9.18;;;;;;;4.99;64.46;101646.16;5020059;28;20038;-69
2023/04/05 07:57:04;;;;;;;8.52;5.80;;;;;;;5.08;62.17;101615.66;5024573;28;20091;-70
2023/04/05 07:59:29;;;;;;;10.00;5.95;;;;;;;5.17;62.38;101611.66;5017718;28;20053;-70
2023/04/05 08:01:55;;;;;;;10.98;6.10;;;;;;;5.33;61.75;101609.50;5015770;28;20033;-71
2023/04/05 08:04:21;;;;;;;9.07;5.93;;;;;;;5.40;62.48;101622.50;5021538;28;20033;-70
2023/04/05 08:06:46;;;;;;;13.23;5.28;;;;;;;5.44;60.54;101583.31;5010710;28;20403;-70
2023/04/05 08:09:12;;;;;;;8.88;5.03;;;;;;;5.51;61.35;101598.03;5015690;28;20042;-71
2023/04/05 08:11:37;;;;;;;8.68;5.07;;;;;;;5.60;60.85;101597.38;5012046;28;20045;-70
2023/04/05 08:14:03;;;;;;;8.75;5.25;;;;;;;5.67;60.14;101578.75;5014362;28;20041;-70
2023/04/05 08:16:29;;;;;;;11.07;6.18;;;;;;;5.83;60.05;101580.84;5014924;28;20040;-70
2023/04/05 08:18:54;;;;;;;9.10;5.15;;;;;;;5.90;59.70;101577.63;5007407;28;20052;-69
2023/04/05 08:21:21;;;;;;;8.23;4.65;;;;;;;5.96;58.56;101557.19;5011635;28;20046;-71
2023/04/05 08:23:48;;;;;;;9.73;5.15;;;;;;;6.03;58.47;101569.34;5009177;28;20402;-71
2023/04/05 08:26:14;;;;;;;12.25;5.63;;;;;;;6.14;58.32;101570.44;5011020;28;20045;-71
2023/04/05 08:28:39;;;;;;;9.57;5.75;;;;;;;6.26;56.96;101557.88;5012814;28;20037;-71
2023/04/05 08:31:05;;;;;;;9.55;5.88;;;;;;;6.36;55.84;101538.41;5008750;28;20381;-71
2023/04/05 08:33:30;;;;;;;11.98;5.10;;;;;;;6.47;56.34;101543.78;5012621;28;20033;-72
2023/04/05 08:35:56;;;;;;;8.60;5.13;;;;;;;6.56;56.15;101546.50;5018054;28;20034;-70
2023/04/05 08:38:22;;;;;;;8.95;5.22;;;;;;;6.69;55.48;101541.66;5014659;28;20029;-70
2023/04/05 08:40:48;;;;;;;9.05;5.20;;;;;;;6.73;54.75;101530.59;5017067;28;20033;-71
2023/04/05 08:43:23;;;;;;;9.95;4.97;;;;;;;6.81;53.52;101523.94;5020314;28;20044;-71
2023/04/05 08:45:49;;;;;;;7.75;4.32;;;;;;;6.92;53.25;101526.69;5023396;28;20049;-71
2023/04/05 08:48:16;;;;;;;10.52;4.15;;;;;;;7.00;52.17;101507.13;5012461;28;20519;-71
2023/04/05 08:50:41;;;;;;;6.20;4.10;;;;;;;7.08;51.57;101505.56;5015245;28;20053;-71
2023/04/05 08:53:10;;;;;;;10.48;4.75;;;;;;;7.12;51.79;101525.31;5014606;28;20045;-70
2023/04/05 08:55:38;;;;;;;7.75;4.38;;;;;;;7.21;52.27;101540.13;5012090;28;20477;-70
2023/04/05 08:58:09;;;;;;;11.13;4.03;;;;;;;7.32;51.43;101523.16;5016047;28;20415;-72
2023/04/05 09:00:35;;;;;;;9.38;3.97;;;;;;;7.36;50.98;101522.34;5019714;28;20045;-70
2023/04/05 09:03:02;;;;;;;9.35;4.03;;;;;;;7.40;50.46;101521.56;5020744;28;20386;-70
2023/04/05 09:05:29;;;;;;;8.55;4.43;;;;;;;7.47;50.92;101527.69;5015123;28;20037;-71
2023/04/05 09:07:57;;;;;;;8.02;4.38;;;;;;;7.56;50.21;101510.69;5013633;28;20137;-71
2023/04/05 09:10:23;;;;;;;7.32;6.45;;;;;;;7.75;50.15;101533.28;5008596;28;20029;-71
2023/04/05 09:12:50;;;;;;;11.88;4.25;;;;;;;7.84;48.86;101517.09;5013638;28;20037;-71
2023/04/05 09:15:16;;;;;;;6.53;3.70;;;;;;;7.90;47.35;101501.75;5015049;28;20124;-71
2023/04/05 09:17:42;;;;;;;8.18;4.07;;;;;;;7.99;48.35;101525.06;5009700;28;20386;-71
2023/04/05 09:20:10;;;;;;;5.43;3.80;;;;;;;8.09;47.77;101511.47;5011832;28;20581;-71
2023/04/05 09:22:46;;;;;;;8.45;3.80;;;;;;;8.21;46.69;101514.22;5007807;28;20599;-71
2023/04/05 09:25:41;;;;;;;7.75;3.80;;;;;;;8.31;47.59;101521.19;5017983;28;20704;-70
2023/04/05 09:28:09;;;;;;;6.70;4.10;;;;;;;8.40;47.44;101516.16;5023835;28;20041;-71
2023/04/05 09:30:36;;;;;;;4.72;3.05;;;;;;;8.44;47.24;101501.59;5016003;28;20041;-70
2023/04/05 09:33:03;;;;;;;8.55;3.70;;;;;;;8.57;46.76;101516.38;5015682;28;20029;-71
2023/04/05 09:35:32;;;;;;;6.97;4.05;;;;;;;8.77;47.02;101506.28;5015613;28;20037;-71
2023/04/05 09:37:59;;;;;;;6.13;3.90;;;;;;;8.91;46.82;101507.28;5011770;28;20030;-70
2023/04/05 09:40:48;;;;;;;6.10;3.67;;;;;;;8.91;45.13;101505.56;5016360;28;20025;-66
2023/04/05 09:43:40;;;;;;;9.30;3.95;;;;;;;8.92;45.36;101504.75;5017479;28;20063;-67
2023/04/05 09:46:06;;;;;;;6.15;4.38;;;;;;;8.86;45.04;101496.94;5013338;28;20038;-67
2023/04/05 09:48:48;;;;;;;8.48;4.95;;;;;;;8.89;47.36;101542.50;5013440;28;20037;-65
2023/04/05 09:51:17;;;;;;;8.00;4.65;;;;;;;8.99;46.78;101532.28;5017149;28;20060;-65
2023/04/05 09:54:03;;;;;;;6.18;4.28;;;;;;;9.10;47.34;101535.00;5011013;28;20134;-65
2023/04/05 09:56:31;;;;;;;7.10;4.20;;;;;;;9.18;44.96;101504.97;5016727;28;20381;-65
2023/04/05 09:59:10;;;;;;;6.90;4.00;;;;;;;9.22;43.40;101482.66;5021450;28;20045;-66
2023/04/05 10:01:37;;;;;;;7.43;3.72;;;;;;;9.26;42.90;101468.94;5012422;28;20061;-66
2023/04/05 10:04:03;;;;;;;6.97;3.63;;;;;;;9.42;41.59;101463.91;5010046;28;20038;-65
2023/04/05 10:06:38;;;;;;;7.90;4.18;;;;;;;9.51;42.13;101473.44;5018447;28;20287;-65
2023/04/05 10:09:05;;;;;;;7.88;4.25;;;;;;;9.54;40.54;101445.94;5013304;28;20081;-66
2023/04/05 10:11:35;;;;;;;6.72;3.80;;;;;;;9.52;39.48;101451.94;5016878;28;20103;-66
2023/04/05 10:14:06;;;;;;;8.27;4.22;;;;;;;9.49;39.36;101451.91;5024821;28;20040;-66
2023/04/05 10:16:37;;;;;;;8.55;4.30;;;;;;;9.54;40.80;101469.16;5022607;28;20112;-66
2023/04/05 10:19:07;;;;;;;9.57;4.18;;;;;;;9.66;40.32;101460.66;5024331;28;20029;-66
2023/04/05 10:21:39;;;;;;;8.10;4.93;;;;;;;9.80;40.47;101461.59;5027685;28;20033;-65
2023/04/05 10:24:31;;;;;;;6.90;4.65;;;;;;;9.80;38.78;101451.28;5030143;28;20065;-66
2023/04/05 10:27:06;;;;;;;6.25;3.83;;;;;;;9.92;40.71;101464.25;5007271;28;20060;-67
2023/04/05 10:29:41;;;;;;;7.40;4.75;;;;;;;9.99;39.38;101444.50;5017894;28;20077;-66
2023/04/05 10:32:33;;;;;;;6.82;4.35;;;;;;;9.81;37.59;101441.81;5013783;28;20095;-66
2023/04/05 10:35:09;;;;;;;7.15;4.28;;;;;;;9.89;37.88;101435.84;5012600;28;20045;-66
2023/04/05 10:37:47;;;;;;;7.60;3.67;;;;;;;9.90;38.62;101452.19;5014090;28;20028;-65
2023/04/05 10:40:13;;;;;;;5.38;3.78;;;;;;;10.12;40.26;101472.09;5014838;28;20033;-65
2023/04/05 10:42:45;;;;;;;5.65;4.13;;;;;;;10.30;40.80;101468.75;5013218;28;20046;-65
2023/04/05 10:45:14;;;;;;;6.97;4.43;;;;;;;10.38;40.10;101478.25;5014326;28;20754;-65
2023/04/05 10:47:47;;;;;;;8.25;4.05;;;;;;;10.51;39.48;101455.88;5011047;28;20045;-66
2023/04/05 10:50:20;;;;;;;6.90;4.32;;;;;;;10.43;40.10;101461.03;5009689;28;20044;-66
2023/04/05 10:52:47;;;;;;;7.15;4.30;;;;;;;10.27;37.47;101441.16;5010694;28;20056;-67
2023/04/05 10:55:14;;;;;;;9.05;4.60;;;;;;;10.33;38.27;101442.94;5011732;28;20105;-67
2023/04/05 10:57:41;;;;;;;7.82;4.75;;;;;;;10.24;39.31;101449.75;5014835;28;20030;-66
2023/04/05 11:00:08;;;;;;;7.97;4.03;;;;;;;10.27;38.18;101438.56;5008655;28;20542;-66
2023/04/05 11:02:34;;;;;;;6.00;3.97;;;;;;;10.14;37.54;101427.34;5006543;28;20033;-66
2023/04/05 11:05:03;;;;;;;7.78;4.30;;;;;;;10.23;39.18;101435.16;5010069;28;20033;-66
2023/04/05 11:07:42;;;;;;;5.55;4.70;;;;;;;10.53;40.18;101446.44;5016471;28;20041;-66
2023/04/05 11:10:17;;;;;;;5.68;4.32;;;;;;;10.64;38.69;101440.41;5013140;28;20071;-66
2023/04/05 11:12:48;;;;;;;9.02;5.07;;;;;;;10.76;38.63;101437.84;5010140;28;20044;-66
2023/04/05 11:15:32;;;;;;;10.13;4.45;;;;;;;10.83;37.27;101428.41;5005934;28;20034;-66
2023/04/05 11:18:16;;;;;;;7.65;4.22;;;;;;;10.77;37.57;101426.63;5011146;28;20053;-66
2023/04/05 11:20:46;;;;;;;6.63;4.18;;;;;;;10.99;38.18;101434.41;5012675;28;20033;-66
2023/04/05 11:23:18;;;;;;;8.15;4.68;;;;;;;11.14;38.85;101434.44;5015007;28;20038;-70
2023/04/05 11:25:51;;;;;;;6.57;4.40;;;;;;;11.31;37.80;101422.34;5019183;28;20035;-68
2023/04/05 11:28:38;;;;;;;8.27;4.95;;;;;;;11.32;38.10;101435.28;5022204;28;20021;-68
2023/04/05 11:31:17;;;;;;;11.05;4.78;;;;;;;11.12;36.43;101415.47;5020121;28;20102;-71
2023/04/05 11:33:43;;;;;;;8.30;4.60;;;;;;;11.10;37.25;101432.72;5021473;28;20106;-70